sensor_id;sensor_type;location;lat;lon;timestamp;temperature;humidity
75517;DHT22;64097;52.548;13.406;2023-05-10T06:03:35;18.00;43.10
75517;DHT22;64097;52.548;13.406;2023-05-10T06:06:00;18.00;43.10
75517;DHT22;64097;52.548;13.406;2023-05-10T06:08:26;18.00;43.00
75517;DHT22;64097;52.548;13.406;2023-05-10T06:10:52;18.10;43.10
75517;DHT22;64097;52.548;13.406;2023-05-10T06:13:17;18.20;43.00
75517;DHT22;64097;52.548;13.406;2023-05-10T06:15:43;18.20;42.90
75517;DHT22;64097;52.548;13.406;2023-05-10T06:18:09;18.30;42.90
75517;DHT22;64097;52.548;13.406;2023-05-10T06:20:34;18.30;42.90
75517;DHT22;64097;52.548;13.406;2023-05-10T06:23:00;18.40;42.80
75517;DHT22;64097;52.548;13.406;2023-05-10T06:25:26;18.50;42.90
75517;DHT22;64097;52.548;13.406;2023-05-10T06:27:52;18.50;42.80
75517;DHT22;64097;52.548;13.406;2023-05-10T06:30:23;18.60;42.80
75517;DHT22;64097;52.548;13.406;2023-05-10T06:32:52;18.60;42.60
75517;DHT22;64097;52.548;13.406;2023-05-10T06:35:19;18.70;42.40
75517;DHT22;64097;52.548;13.406;2023-05-10T06:37:44;18.70;42.30
75517;DHT22;64097;52.548;13.406;2023-05-10T06:40:10;18.70;42.30
75517;DHT22;64097;52.548;13.406;2023-05-10T06:42:36;18.80;42.90
75517;DHT22;64097;52.548;13.406;2023-05-10T06:45:02;18.90;42.20
75517;DHT22;64097;52.548;13.406;2023-05-10T06:47:27;18.90;41.90
75517;DHT22;64097;52.548;13.406;2023-05-10T06:49:53;19.00;42.00
75517;DHT22;64097;52.548;13.406;2023-05-10T06:52:25;19.00;42.10
75517;DHT22;64097;52.548;13.406;2023-05-10T06:54:51;19.00;42.00
75517;DHT22;64097;52.548;13.406;2023-05-10T06:57:17;19.10;42.00
75517;DHT22;64097;52.548;13.406;2023-05-10T06:59:44;19.10;41.90
75517;DHT22;64097;52.548;13.406;2023-05-10T07:02:10;19.10;41.90
75517;DHT22;64097;52.548;13.406;2023-05-10T07:04:35;19.20;42.00
75517;DHT22;64097;52.548;13.406;2023-05-10T07:07:01;19.30;41.90
75517;DHT22;64097;52.548;13.406;2023-05-10T07:09:27;19.30;41.90
75517;DHT22;64097;52.548;13.406;2023-05-10T07:11:53;19.30;41.80
75517;DHT22;64097;52.548;13.406;2023-05-10T07:14:19;19.40;41.70
75517;DHT22;64097;52.548;13.406;2023-05-10T07:16:44;19.40;41.60
75517;DHT22;64097;52.548;13.406;2023-05-10T07:19:10;19.50;41.60
75517;DHT22;64097;52.548;13.406;2023-05-10T07:21:36;19.50;41.50
75517;DHT22;64097;52.548;13.406;2023-05-10T07:24:02;19.60;41.50
75517;DHT22;64097;52.548;13.406;2023-05-10T07:26:28;19.60;41.40
75517;DHT22;64097;52.548;13.406;2023-05-10T07:28:54;19.60;41.40
75517;DHT22;64097;52.548;13.406;2023-05-10T07:31:20;19.70;41.30
75517;DHT22;64097;52.548;13.406;2023-05-10T07:33:45;19.70;41.30
75517;DHT22;64097;52.548;13.406;2023-05-10T07:36:11;19.70;41.30
75517;DHT22;64097;52.548;13.406;2023-05-10T07:38:38;19.80;41.30
75517;DHT22;64097;52.548;13.406;2023-05-10T07:41:03;19.80;41.10
75517;DHT22;64097;52.548;13.406;2023-05-10T07:43:29;19.90;41.00
75517;DHT22;64097;52.548;13.406;2023-05-10T07:45:55;19.90;41.00
75517;DHT22;64097;52.548;13.406;2023-05-10T07:48:22;20.00;41.10
75517;DHT22;64097;52.548;13.406;2023-05-10T07:50:48;20.00;41.00
75517;DHT22;64097;52.548;13.406;2023-05-10T07:53:14;20.10;41.80
75517;DHT22;64097;52.548;13.406;2023-05-10T07:55:39;20.10;40.90
75517;DHT22;64097;52.548;13.406;2023-05-10T07:58:05;20.10;40.80
75517;DHT22;64097;52.548;13.406;2023-05-10T08:00:31;20.20;40.90
75517;DHT22;64097;52.548;13.406;2023-05-10T08:02:57;20.30;40.90
75517;DHT22;64097;52.548;13.406;2023-05-10T08:05:22;20.30;40.80
75517;DHT22;64097;52.548;13.406;2023-05-10T08:07:48;20.40;40.90
75517;DHT22;64097;52.548;13.406;2023-05-10T08:10:14;20.40;40.80
75517;DHT22;64097;52.548;13.406;2023-05-10T08:12:40;20.40;40.50
75517;DHT22;64097;52.548;13.406;2023-05-10T08:15:06;20.50;40.50
75517;DHT22;64097;52.548;13.406;2023-05-10T08:17:32;20.50;40.30
75517;DHT22;64097;52.548;13.406;2023-05-10T08:19:58;20.50;40.30
75517;DHT22;64097;52.548;13.406;2023-05-10T08:22:24;20.60;40.40
75517;DHT22;64097;52.548;13.406;2023-05-10T08:24:49;20.60;40.10
75517;DHT22;64097;52.548;13.406;2023-05-10T08:27:15;20.60;40.20
75517;DHT22;64097;52.548;13.406;2023-05-10T08:29:41;20.70;40.20
75517;DHT22;64097;52.548;13.406;2023-05-10T08:32:06;20.70;40.20
75517;DHT22;64097;52.548;13.406;2023-05-10T08:34:32;20.70;40.10
75517;DHT22;64097;52.548;13.406;2023-05-10T08:36:58;20.80;39.80
75517;DHT22;64097;52.548;13.406;2023-05-10T08:39:24;20.80;39.80
75517;DHT22;64097;52.548;13.406;2023-05-10T08:41:51;20.90;39.80
75517;DHT22;64097;52.548;13.406;2023-05-10T08:44:18;20.90;39.80
75517;DHT22;64097;52.548;13.406;2023-05-10T08:46:46;20.90;39.70
75517;DHT22;64097;52.548;13.406;2023-05-10T08:49:16;21.00;39.50
75517;DHT22;64097;52.548;13.406;2023-05-10T08:51:47;21.00;39.50
75517;DHT22;64097;52.548;13.406;2023-05-10T08:54:15;21.10;39.60
75517;DHT22;64097;52.548;13.406;2023-05-10T08:56:41;21.10;39.50
75517;DHT22;64097;52.548;13.406;2023-05-10T08:59:07;21.20;39.50
75517;DHT22;64097;52.548;13.406;2023-05-10T09:01:35;21.30;39.40
75517;DHT22;64097;52.548;13.406;2023-05-10T09:04:02;21.30;39.20
75517;DHT22;64097;52.548;13.406;2023-05-10T09:06:28;21.30;38.70
75517;DHT22;64097;52.548;13.406;2023-05-10T09:08:54;21.40;38.60
75517;DHT22;64097;52.548;13.406;2023-05-10T09:11:21;21.40;38.20
75517;DHT22;64097;52.548;13.406;2023-05-10T09:13:48;21.40;38.30
75517;DHT22;64097;52.548;13.406;2023-05-10T09:16:16;21.50;38.50
75517;DHT22;64097;52.548;13.406;2023-05-10T09:18:41;21.50;38.60
75517;DHT22;64097;52.548;13.406;2023-05-10T09:21:07;21.60;38.40
75517;DHT22;64097;52.548;13.406;2023-05-10T09:23:33;21.60;38.50
75517;DHT22;64097;52.548;13.406;2023-05-10T09:26:06;21.70;38.60
75517;DHT22;64097;52.548;13.406;2023-05-10T09:28:54;21.70;38.40
75517;DHT22;64097;52.548;13.406;2023-05-10T09:31:19;21.80;38.50
75517;DHT22;64097;52.548;13.406;2023-05-10T09:33:46;21.80;38.20
75517;DHT22;64097;52.548;13.406;2023-05-10T09:36:13;21.80;37.80
75517;DHT22;64097;52.548;13.406;2023-05-10T09:38:51;21.90;37.80
75517;DHT22;64097;52.548;13.406;2023-05-10T09:41:21;21.90;37.90
75517;DHT22;64097;52.548;13.406;2023-05-10T09:43:48;21.90;37.80
75517;DHT22;64097;52.548;13.406;2023-05-10T09:46:15;22.00;37.70
75517;DHT22;64097;52.548;13.406;2023-05-10T09:48:46;22.00;37.90
75517;DHT22;64097;52.548;13.406;2023-05-10T09:51:25;22.00;37.60
75517;DHT22;64097;52.548;13.406;2023-05-10T09:54:12;22.10;37.50
75517;DHT22;64097;52.548;13.406;2023-05-10T09:56:38;22.10;37.50
75517;DHT22;64097;52.548;13.406;2023-05-10T09:59:06;22.10;37.50
75517;DHT22;64097;52.548;13.406;2023-05-10T10:01:33;22.20;37.60
75517;DHT22;64097;52.548;13.406;2023-05-10T10:04:03;22.20;37.80
75517;DHT22;64097;52.548;13.406;2023-05-10T10:06:29;22.30;37.90
75517;DHT22;64097;52.548;13.406;2023-05-10T10:09:00;22.30;37.70
75517;DHT22;64097;52.548;13.406;2023-05-10T10:11:25;22.30;37.20
75517;DHT22;64097;52.548;13.406;2023-05-10T10:13:51;22.30;37.30
75517;DHT22;64097;52.548;13.406;2023-05-10T10:16:17;22.40;37.00
75517;DHT22;64097;52.548;13.406;2023-05-10T10:18:43;22.40;36.80
75517;DHT22;64097;52.548;13.406;2023-05-10T10:21:09;22.40;37.00
75517;DHT22;64097;52.548;13.406;2023-05-10T10:23:35;22.50;37.20
75517;DHT22;64097;52.548;13.406;2023-05-10T10:26:03;22.50;37.10
75517;DHT22;64097;52.548;13.406;2023-05-10T10:31:32;22.60;36.90
75517;DHT22;64097;52.548;13.406;2023-05-10T10:34:03;22.70;36.80
75517;DHT22;64097;52.548;13.406;2023-05-10T10:36:30;22.70;36.90
75517;DHT22;64097;52.548;13.406;2023-05-10T10:38:59;22.70;37.00
75517;DHT22;64097;52.548;13.406;2023-05-10T10:41:33;22.80;37.10
75517;DHT22;64097;52.548;13.406;2023-05-10T10:52:28;23.00;36.80
75517;DHT22;64097;52.548;13.406;2023-05-10T10:57:54;23.10;36.90
75517;DHT22;64097;52.548;13.406;2023-05-10T11:03:06;23.20;36.10
75517;DHT22;64097;52.548;13.406;2023-05-10T11:05:42;23.20;36.00
75517;DHT22;64097;52.548;13.406;2023-05-10T11:13:41;23.30;36.10
75517;DHT22;64097;52.548;13.406;2023-05-10T11:18:39;23.40;36.30
75517;DHT22;64097;52.548;13.406;2023-05-10T11:21:09;23.40;36.20
75517;DHT22;64097;52.548;13.406;2023-05-10T11:23:50;23.50;35.90
75517;DHT22;64097;52.548;13.406;2023-05-10T11:26:18;23.50;35.50
75517;DHT22;64097;52.548;13.406;2023-05-10T11:28:46;23.50;35.50
75517;DHT22;64097;52.548;13.406;2023-05-10T11:31:16;23.50;35.40
75517;DHT22;64097;52.548;13.406;2023-05-10T11:33:44;23.60;35.30
75517;DHT22;64097;52.548;13.406;2023-05-10T11:36:39;23.60;35.50
75517;DHT22;64097;52.548;13.406;2023-05-10T11:39:06;23.60;35.70
75517;DHT22;64097;52.548;13.406;2023-05-10T11:41:32;23.70;35.60
75517;DHT22;64097;52.548;13.406;2023-05-10T11:43:58;23.70;35.50
75517;DHT22;64097;52.548;13.406;2023-05-10T11:46:25;23.70;35.30
75517;DHT22;64097;52.548;13.406;2023-05-10T11:49:03;23.70;35.40
75517;DHT22;64097;52.548;13.406;2023-05-10T11:51:35;23.80;35.40
75517;DHT22;64097;52.548;13.406;2023-05-10T11:54:05;23.80;35.50
75517;DHT22;64097;52.548;13.406;2023-05-10T11:56:32;23.80;35.00
75517;DHT22;64097;52.548;13.406;2023-05-10T11:58:58;23.80;34.80
75517;DHT22;64097;52.548;13.406;2023-05-10T12:01:26;23.90;35.00
75517;DHT22;64097;52.548;13.406;2023-05-10T12:03:54;23.90;35.30
75517;DHT22;64097;52.548;13.406;2023-05-10T12:06:20;24.00;35.20
75517;DHT22;64097;52.548;13.406;2023-05-10T12:08:47;24.00;35.20
75517;DHT22;64097;52.548;13.406;2023-05-10T12:11:14;24.00;34.80
75517;DHT22;64097;52.548;13.406;2023-05-10T12:13:42;24.10;34.60
75517;DHT22;64097;52.548;13.406;2023-05-10T12:16:19;24.10;34.80
75517;DHT22;64097;52.548;13.406;2023-05-10T12:18:48;24.20;34.50
75517;DHT22;64097;52.548;13.406;2023-05-10T12:21:15;24.20;35.40
75517;DHT22;64097;52.548;13.406;2023-05-10T12:23:41;24.20;34.60
75517;DHT22;64097;52.548;13.406;2023-05-10T12:26:10;24.30;34.10
75517;DHT22;64097;52.548;13.406;2023-05-10T12:28:37;24.30;34.30
75517;DHT22;64097;52.548;13.406;2023-05-10T12:31:03;24.30;34.00
75517;DHT22;64097;52.548;13.406;2023-05-10T12:33:40;24.40;33.90
75517;DHT22;64097;52.548;13.406;2023-05-10T12:36:13;24.40;33.50
75517;DHT22;64097;52.548;13.406;2023-05-10T12:38:45;24.40;33.30
75517;DHT22;64097;52.548;13.406;2023-05-10T12:41:17;24.40;33.10
75517;DHT22;64097;52.548;13.406;2023-05-10T12:43:43;24.50;32.80
75517;DHT22;64097;52.548;13.406;2023-05-10T12:46:10;24.50;32.60
75517;DHT22;64097;52.548;13.406;2023-05-10T12:48:37;24.50;32.70
75517;DHT22;64097;52.548;13.406;2023-05-10T12:51:04;24.50;32.80
75517;DHT22;64097;52.548;13.406;2023-05-10T12:53:30;24.60;32.90
75517;DHT22;64097;52.548;13.406;2023-05-10T12:55:57;24.60;33.00
75517;DHT22;64097;52.548;13.406;2023-05-10T12:58:23;24.60;33.20
75517;DHT22;64097;52.548;13.406;2023-05-10T13:00:48;24.60;33.00
75517;DHT22;64097;52.548;13.406;2023-05-10T13:03:14;24.70;32.70
75517;DHT22;64097;52.548;13.406;2023-05-10T13:05:41;24.70;32.60
75517;DHT22;64097;52.548;13.406;2023-05-10T13:08:07;24.70;32.80
75517;DHT22;64097;52.548;13.406;2023-05-10T13:10:33;24.70;32.70
75517;DHT22;64097;52.548;13.406;2023-05-10T13:12:59;24.70;32.50
75517;DHT22;64097;52.548;13.406;2023-05-10T13:15:25;24.70;32.40
75517;DHT22;64097;52.548;13.406;2023-05-10T13:17:51;24.80;32.30
75517;DHT22;64097;52.548;13.406;2023-05-10T13:20:16;24.90;32.50
75517;DHT22;64097;52.548;13.406;2023-05-10T13:22:45;24.90;32.50
75517;DHT22;64097;52.548;13.406;2023-05-10T13:25:11;24.90;32.30
75517;DHT22;64097;52.548;13.406;2023-05-10T13:27:41;24.90;32.50
75517;DHT22;64097;52.548;13.406;2023-05-10T13:30:08;24.90;32.40
75517;DHT22;64097;52.548;13.406;2023-05-10T13:32:34;24.90;32.40
75517;DHT22;64097;52.548;13.406;2023-05-10T13:35:00;24.90;31.90
75517;DHT22;64097;52.548;13.406;2023-05-10T13:37:25;24.90;31.50
75517;DHT22;64097;52.548;13.406;2023-05-10T13:39:51;24.90;32.00
75517;DHT22;64097;52.548;13.406;2023-05-10T13:42:18;24.90;31.20
75517;DHT22;64097;52.548;13.406;2023-05-10T13:44:45;24.90;31.50
75517;DHT22;64097;52.548;13.406;2023-05-10T13:47:10;24.90;31.90
75517;DHT22;64097;52.548;13.406;2023-05-10T13:49:36;24.90;32.20
75517;DHT22;64097;52.548;13.406;2023-05-10T13:52:02;25.00;32.00
75517;DHT22;64097;52.548;13.406;2023-05-10T13:54:38;25.00;31.60
75517;DHT22;64097;52.548;13.406;2023-05-10T13:57:04;25.00;31.40
75517;DHT22;64097;52.548;13.406;2023-05-10T13:59:31;25.00;31.00
